sensor_id;sensor_type;location;lat;lon;timestamp;P1;durP1;ratioP1;P2;durP2;ratioP2
11425;SDS011;5769;47.998;7.788;2024-02-16T00:00:13;214.13;;;56.70;;
11425;SDS011;5769;47.998;7.788;2024-02-16T00:02:45;223.02;;;65.20;;
11425;SDS011;5769;47.998;7.788;2024-02-16T00:05:12;214.85;;;57.75;;
11425;SDS011;5769;47.998;7.788;2024-02-16T00:07:42;215.82;;;57.67;;
11425;SDS011;5769;47.998;7.788;2024-02-16T00:10:15;216.10;;;63.50;;
11425;SDS011;5769;47.998;7.788;2024-02-16T00:12:46;211.40;;;57.22;;
11425;SDS011;5769;47.998;7.788;2024-02-16T00:15:19;211.57;;;57.88;;
11425;SDS011;5769;47.998;7.788;2024-02-16T00:17:49;209.95;;;57.45;;
11425;SDS011;5769;47.998;7.788;2024-02-16T00:20:18;210.70;;;59.00;;
11425;SDS011;5769;47.998;7.788;2024-02-16T00:22:53;210.20;;;57.03;;
11425;SDS011;5769;47.998;7.788;2024-02-16T00:25:23;212.15;;;58.30;;
11425;SDS011;5769;47.998;7.788;2024-02-16T00:27:52;212.32;;;57.72;;
11425;SDS011;5769;47.998;7.788;2024-02-16T00:30:19;212.13;;;57.95;;
11425;SDS011;5769;47.998;7.788;2024-02-16T00:32:48;212.13;;;56.80;;
11425;SDS011;5769;47.998;7.788;2024-02-16T00:35:18;212.90;;;58.63;;
11425;SDS011;5769;47.998;7.788;2024-02-16T00:37:45;212.82;;;58.30;;
11425;SDS011;5769;47.998;7.788;2024-02-16T00:40:13;212.75;;;59.28;;
11425;SDS011;5769;47.998;7.788;2024-02-16T00:42:45;213.85;;;59.03;;
11425;SDS011;5769;47.998;7.788;2024-02-16T00:45:16;211.35;;;56.53;;
11425;SDS011;5769;47.998;7.788;2024-02-16T00:47:44;213.10;;;58.65;;
11425;SDS011;5769;47.998;7.788;2024-02-16T00:50:16;211.98;;;57.15;;
11425;SDS011;5769;47.998;7.788;2024-02-16T00:52:49;212.98;;;57.42;;
11425;SDS011;5769;47.998;7.788;2024-02-16T00:55:17;211.80;;;57.72;;
11425;SDS011;5769;47.998;7.788;2024-02-16T00:57:49;210.77;;;57.40;;
11425;SDS011;5769;47.998;7.788;2024-02-16T01:00:16;208.75;;;57.38;;
11425;SDS011;5769;47.998;7.788;2024-02-16T01:02:48;207.80;;;57.90;;
11425;SDS011;5769;47.998;7.788;2024-02-16T01:05:18;207.25;;;57.60;;
11425;SDS011;5769;47.998;7.788;2024-02-16T01:07:51;207.82;;;56.72;;
11425;SDS011;5769;47.998;7.788;2024-02-16T01:10:19;208.02;;;56.58;;
11425;SDS011;5769;47.998;7.788;2024-02-16T01:12:46;205.57;;;55.83;;
11425;SDS011;5769;47.998;7.788;2024-02-16T01:15:13;205.82;;;56.28;;
11425;SDS011;5769;47.998;7.788;2024-02-16T01:17:45;206.82;;;56.92;;
11425;SDS011;5769;47.998;7.788;2024-02-16T01:20:20;208.60;;;58.20;;
11425;SDS011;5769;47.998;7.788;2024-02-16T01:22:47;206.32;;;58.30;;
11425;SDS011;5769;47.998;7.788;2024-02-16T01:25:17;209.52;;;58.80;;
11425;SDS011;5769;47.998;7.788;2024-02-16T01:27:47;210.68;;;56.80;;
11425;SDS011;5769;47.998;7.788;2024-02-16T01:30:17;210.70;;;57.50;;
11425;SDS011;5769;47.998;7.788;2024-02-16T01:32:50;212.63;;;57.17;;
11425;SDS011;5769;47.998;7.788;2024-02-16T01:35:21;212.10;;;56.97;;
11425;SDS011;5769;47.998;7.788;2024-02-16T01:37:56;211.45;;;58.28;;
11425;SDS011;5769;47.998;7.788;2024-02-16T01:40:25;213.10;;;58.38;;
11425;SDS011;5769;47.998;7.788;2024-02-16T01:42:55;211.13;;;58.17;;
11425;SDS011;5769;47.998;7.788;2024-02-16T01:45:27;209.75;;;58.35;;
11425;SDS011;5769;47.998;7.788;2024-02-16T01:47:55;207.82;;;55.95;;
11425;SDS011;5769;47.998;7.788;2024-02-16T01:50:25;210.40;;;58.53;;
11425;SDS011;5769;47.998;7.788;2024-02-16T01:52:58;210.07;;;57.35;;
11425;SDS011;5769;47.998;7.788;2024-02-16T01:55:26;206.73;;;56.80;;
11425;SDS011;5769;47.998;7.788;2024-02-16T01:57:55;208.60;;;58.45;;
11425;SDS011;5769;47.998;7.788;2024-02-16T02:00:25;209.63;;;58.20;;
11425;SDS011;5769;47.998;7.788;2024-02-16T02:02:56;207.35;;;56.72;;
11425;SDS011;5769;47.998;7.788;2024-02-16T02:05:47;209.07;;;56.25;;
11425;SDS011;5769;47.998;7.788;2024-02-16T02:08:19;208.85;;;56.95;;
11425;SDS011;5769;47.998;7.788;2024-02-16T02:10:56;209.77;;;57.35;;
11425;SDS011;5769;47.998;7.788;2024-02-16T02:13:27;209.85;;;58.17;;
11425;SDS011;5769;47.998;7.788;2024-02-16T02:15:55;210.07;;;56.63;;
11425;SDS011;5769;47.998;7.788;2024-02-16T02:18:24;209.07;;;57.75;;
11425;SDS011;5769;47.998;7.788;2024-02-16T02:20:51;209.73;;;56.58;;
11425;SDS011;5769;47.998;7.788;2024-02-16T02:23:20;209.95;;;58.30;;
11425;SDS011;5769;47.998;7.788;2024-02-16T02:25:47;210.85;;;57.50;;
11425;SDS011;5769;47.998;7.788;2024-02-16T02:28:15;210.57;;;58.22;;
11425;SDS011;5769;47.998;7.788;2024-02-16T02:30:49;212.57;;;58.03;;
11425;SDS011;5769;47.998;7.788;2024-02-16T02:33:16;212.18;;;57.75;;
11425;SDS011;5769;47.998;7.788;2024-02-16T02:35:42;210.90;;;57.33;;
11425;SDS011;5769;47.998;7.788;2024-02-16T02:38:10;212.23;;;58.67;;
11425;SDS011;5769;47.998;7.788;2024-02-16T02:40:53;212.38;;;56.22;;
11425;SDS011;5769;47.998;7.788;2024-02-16T02:43:20;212.70;;;57.67;;
11425;SDS011;5769;47.998;7.788;2024-02-16T02:45:52;213.63;;;56.90;;
11425;SDS011;5769;47.998;7.788;2024-02-16T02:48:19;213.60;;;58.58;;
11425;SDS011;5769;47.998;7.788;2024-02-16T02:50:49;212.45;;;55.80;;
11425;SDS011;5769;47.998;7.788;2024-02-16T02:53:18;213.55;;;57.35;;
11425;SDS011;5769;47.998;7.788;2024-02-16T02:55:50;214.13;;;57.80;;
11425;SDS011;5769;47.998;7.788;2024-02-16T02:58:25;214.55;;;58.58;;
11425;SDS011;5769;47.998;7.788;2024-02-16T03:00:55;213.68;;;57.65;;
11425;SDS011;5769;47.998;7.788;2024-02-16T03:03:22;212.82;;;58.38;;
11425;SDS011;5769;47.998;7.788;2024-02-16T03:05:50;212.25;;;57.88;;
11425;SDS011;5769;47.998;7.788;2024-02-16T03:08:17;212.32;;;57.75;;
11425;SDS011;5769;47.998;7.788;2024-02-16T03:10:53;214.55;;;58.33;;
11425;SDS011;5769;47.998;7.788;2024-02-16T03:13:20;214.13;;;58.45;;
11425;SDS011;5769;47.998;7.788;2024-02-16T03:15:49;212.05;;;56.55;;
11425;SDS011;5769;47.998;7.788;2024-02-16T03:18:20;211.70;;;55.63;;
11425;SDS011;5769;47.998;7.788;2024-02-16T03:20:48;214.70;;;59.40;;
11425;SDS011;5769;47.998;7.788;2024-02-16T03:23:19;213.80;;;59.33;;
11425;SDS011;5769;47.998;7.788;2024-02-16T03:25:52;214.40;;;58.65;;
11425;SDS011;5769;47.998;7.788;2024-02-16T03:28:19;216.48;;;59.17;;
11425;SDS011;5769;47.998;7.788;2024-02-16T03:30:46;216.73;;;60.03;;
11425;SDS011;5769;47.998;7.788;2024-02-16T03:33:15;214.38;;;59.00;;
11425;SDS011;5769;47.998;7.788;2024-02-16T03:35:43;215.93;;;59.40;;
11425;SDS011;5769;47.998;7.788;2024-02-16T03:38:12;217.32;;;59.72;;
11425;SDS011;5769;47.998;7.788;2024-02-16T03:40:41;214.75;;;58.08;;
11425;SDS011;5769;47.998;7.788;2024-02-16T03:43:10;214.60;;;58.95;;
11425;SDS011;5769;47.998;7.788;2024-02-16T03:45:39;214.10;;;59.28;;
11425;SDS011;5769;47.998;7.788;2024-02-16T03:48:09;214.18;;;59.97;;
11425;SDS011;5769;47.998;7.788;2024-02-16T03:50:38;213.48;;;59.10;;
11425;SDS011;5769;47.998;7.788;2024-02-16T03:53:06;212.68;;;57.97;;
11425;SDS011;5769;47.998;7.788;2024-02-16T03:55:38;210.85;;;58.53;;
11425;SDS011;5769;47.998;7.788;2024-02-16T03:58:06;213.25;;;60.45;;
11425;SDS011;5769;47.998;7.788;2024-02-16T04:00:37;214.35;;;61.10;;
11425;SDS011;5769;47.998;7.788;2024-02-16T04:03:04;212.68;;;58.90;;
11425;SDS011;5769;47.998;7.788;2024-02-16T04:05:31;214.02;;;58.03;;
11425;SDS011;5769;47.998;7.788;2024-02-16T04:08:04;214.13;;;59.35;;
11425;SDS011;5769;47.998;7.788;2024-02-16T04:10:31;212.88;;;57.55;;
11425;SDS011;5769;47.998;7.788;2024-02-16T04:13:01;213.02;;;58.63;;
11425;SDS011;5769;47.998;7.788;2024-02-16T04:15:29;211.82;;;59.15;;
11425;SDS011;5769;47.998;7.788;2024-02-16T04:18:00;210.30;;;58.45;;
11425;SDS011;5769;47.998;7.788;2024-02-16T04:20:29;208.73;;;58.10;;
11425;SDS011;5769;47.998;7.788;2024-02-16T04:22:56;205.80;;;58.40;;
11425;SDS011;5769;47.998;7.788;2024-02-16T04:25:24;204.10;;;56.83;;
11425;SDS011;5769;47.998;7.788;2024-02-16T04:27:51;208.75;;;59.70;;
11425;SDS011;5769;47.998;7.788;2024-02-16T04:30:17;207.43;;;59.75;;
11425;SDS011;5769;47.998;7.788;2024-02-16T04:32:48;204.50;;;57.30;;
11425;SDS011;5769;47.998;7.788;2024-02-16T04:35:17;205.25;;;58.63;;
11425;SDS011;5769;47.998;7.788;2024-02-16T04:37:48;205.20;;;57.65;;
11425;SDS011;5769;47.998;7.788;2024-02-16T04:40:17;202.95;;;56.88;;
11425;SDS011;5769;47.998;7.788;2024-02-16T04:42:55;206.40;;;58.58;;
11425;SDS011;5769;47.998;7.788;2024-02-16T04:45:25;206.50;;;58.88;;
11425;SDS011;5769;47.998;7.788;2024-02-16T04:47:52;206.25;;;58.08;;
11425;SDS011;5769;47.998;7.788;2024-02-16T04:50:30;208.25;;;58.85;;
11425;SDS011;5769;47.998;7.788;2024-02-16T04:53:00;207.48;;;57.15;;
11425;SDS011;5769;47.998;7.788;2024-02-16T04:55:31;208.40;;;57.92;;
11425;SDS011;5769;47.998;7.788;2024-02-16T04:58:00;208.98;;;58.95;;
11425;SDS011;5769;47.998;7.788;2024-02-16T05:00:29;212.07;;;61.13;;
11425;SDS011;5769;47.998;7.788;2024-02-16T05:02:56;210.02;;;59.15;;
11425;SDS011;5769;47.998;7.788;2024-02-16T05:05:23;211.95;;;59.60;;
11425;SDS011;5769;47.998;7.788;2024-02-16T05:07:54;212.85;;;58.97;;
11425;SDS011;5769;47.998;7.788;2024-02-16T05:10:20;209.50;;;57.22;;
11425;SDS011;5769;47.998;7.788;2024-02-16T05:12:53;211.98;;;56.95;;
11425;SDS011;5769;47.998;7.788;2024-02-16T05:15:39;210.82;;;56.50;;
11425;SDS011;5769;47.998;7.788;2024-02-16T05:18:16;213.07;;;56.65;;
11425;SDS011;5769;47.998;7.788;2024-02-16T05:20:47;211.32;;;56.17;;
11425;SDS011;5769;47.998;7.788;2024-02-16T05:23:17;209.32;;;56.33;;
11425;SDS011;5769;47.998;7.788;2024-02-16T05:25:49;208.85;;;57.63;;
11425;SDS011;5769;47.998;7.788;2024-02-16T05:28:23;209.68;;;58.60;;
11425;SDS011;5769;47.998;7.788;2024-02-16T05:30:50;209.02;;;58.15;;
11425;SDS011;5769;47.998;7.788;2024-02-16T05:33:17;210.43;;;58.08;;
11425;SDS011;5769;47.998;7.788;2024-02-16T05:35:48;211.25;;;58.03;;
11425;SDS011;5769;47.998;7.788;2024-02-16T05:38:22;212.93;;;56.30;;
11425;SDS011;5769;47.998;7.788;2024-02-16T05:41:05;211.52;;;59.38;;
11425;SDS011;5769;47.998;7.788;2024-02-16T05:43:37;211.38;;;56.42;;
11425;SDS011;5769;47.998;7.788;2024-02-16T05:46:04;210.82;;;57.00;;
11425;SDS011;5769;47.998;7.788;2024-02-16T05:48:34;212.27;;;57.58;;
11425;SDS011;5769;47.998;7.788;2024-02-16T05:51:05;212.73;;;56.90;;
11425;SDS011;5769;47.998;7.788;2024-02-16T05:53:37;213.05;;;57.45;;
11425;SDS011;5769;47.998;7.788;2024-02-16T05:56:06;214.00;;;58.17;;
11425;SDS011;5769;47.998;7.788;2024-02-16T05:58:36;216.48;;;58.30;;
11425;SDS011;5769;47.998;7.788;2024-02-16T06:01:03;214.65;;;58.42;;
11425;SDS011;5769;47.998;7.788;2024-02-16T06:03:35;214.60;;;57.55;;
11425;SDS011;5769;47.998;7.788;2024-02-16T06:06:07;215.60;;;56.22;;
11425;SDS011;5769;47.998;7.788;2024-02-16T06:08:34;214.77;;;56.58;;
11425;SDS011;5769;47.998;7.788;2024-02-16T06:11:01;214.25;;;57.05;;
11425;SDS011;5769;47.998;7.788;2024-02-16T06:13:29;214.48;;;56.78;;
11425;SDS011;5769;47.998;7.788;2024-02-16T06:16:19;213.52;;;57.47;;
11425;SDS011;5769;47.998;7.788;2024-02-16T06:18:47;212.90;;;57.20;;
11425;SDS011;5769;47.998;7.788;2024-02-16T06:21:15;213.23;;;56.95;;
11425;SDS011;5769;47.998;7.788;2024-02-16T06:23:42;213.43;;;56.90;;
11425;SDS011;5769;47.998;7.788;2024-02-16T06:26:08;214.68;;;57.55;;
11425;SDS011;5769;47.998;7.788;2024-02-16T06:28:38;215.60;;;58.13;;
11425;SDS011;5769;47.998;7.788;2024-02-16T06:31:08;215.18;;;57.95;;
11425;SDS011;5769;47.998;7.788;2024-02-16T06:33:37;215.23;;;57.60;;
11425;SDS011;5769;47.998;7.788;2024-02-16T06:36:07;215.75;;;58.88;;
11425;SDS011;5769;47.998;7.788;2024-02-16T06:38:34;217.65;;;59.20;;
11425;SDS011;5769;47.998;7.788;2024-02-16T06:41:03;216.52;;;58.15;;
11425;SDS011;5769;47.998;7.788;2024-02-16T06:43:30;215.45;;;57.03;;
11425;SDS011;5769;47.998;7.788;2024-02-16T06:46:00;216.85;;;57.30;;
11425;SDS011;5769;47.998;7.788;2024-02-16T06:48:34;215.93;;;57.08;;
11425;SDS011;5769;47.998;7.788;2024-02-16T06:51:03;214.73;;;56.40;;
11425;SDS011;5769;47.998;7.788;2024-02-16T06:53:32;215.30;;;56.83;;
11425;SDS011;5769;47.998;7.788;2024-02-16T06:55:59;215.30;;;57.53;;
11425;SDS011;5769;47.998;7.788;2024-02-16T06:58:26;215.50;;;57.30;;
11425;SDS011;5769;47.998;7.788;2024-02-16T07:00:55;213.82;;;55.33;;
11425;SDS011;5769;47.998;7.788;2024-02-16T07:03:28;215.30;;;58.13;;
11425;SDS011;5769;47.998;7.788;2024-02-16T07:05:55;213.63;;;57.75;;
11425;SDS011;5769;47.998;7.788;2024-02-16T07:08:24;213.25;;;56.85;;
11425;SDS011;5769;47.998;7.788;2024-02-16T07:10:53;212.10;;;56.22;;
11425;SDS011;5769;47.998;7.788;2024-02-16T07:13:22;212.90;;;58.25;;
11425;SDS011;5769;47.998;7.788;2024-02-16T07:15:52;211.20;;;57.03;;
11425;SDS011;5769;47.998;7.788;2024-02-16T07:18:20;211.63;;;56.97;;
11425;SDS011;5769;47.998;7.788;2024-02-16T07:20:47;212.90;;;58.50;;
11425;SDS011;5769;47.998;7.788;2024-02-16T07:23:13;211.25;;;57.08;;
11425;SDS011;5769;47.998;7.788;2024-02-16T07:25:45;211.07;;;57.80;;
11425;SDS011;5769;47.998;7.788;2024-02-16T07:28:13;207.80;;;55.72;;
11425;SDS011;5769;47.998;7.788;2024-02-16T07:30:40;210.35;;;58.40;;
11425;SDS011;5769;47.998;7.788;2024-02-16T07:33:09;210.98;;;58.25;;
11425;SDS011;5769;47.998;7.788;2024-02-16T07:35:39;210.95;;;57.60;;
11425;SDS011;5769;47.998;7.788;2024-02-16T07:38:05;212.68;;;58.58;;
11425;SDS011;5769;47.998;7.788;2024-02-16T07:40:35;208.20;;;57.53;;
11425;SDS011;5769;47.998;7.788;2024-02-16T07:43:06;203.20;;;57.17;;
11425;SDS011;5769;47.998;7.788;2024-02-16T07:45:33;201.43;;;57.47;;
11425;SDS011;5769;47.998;7.788;2024-02-16T07:48:02;202.70;;;58.10;;
11425;SDS011;5769;47.998;7.788;2024-02-16T07:50:33;206.70;;;58.42;;
11425;SDS011;5769;47.998;7.788;2024-02-16T07:53:02;210.07;;;57.38;;
11425;SDS011;5769;47.998;7.788;2024-02-16T07:55:35;209.77;;;58.25;;
11425;SDS011;5769;47.998;7.788;2024-02-16T07:58:08;208.30;;;57.85;;
11425;SDS011;5769;47.998;7.788;2024-02-16T08:00:35;210.13;;;58.88;;
11425;SDS011;5769;47.998;7.788;2024-02-16T08:03:06;211.27;;;58.38;;
11425;SDS011;5769;47.998;7.788;2024-02-16T08:05:36;211.45;;;58.88;;
11425;SDS011;5769;47.998;7.788;2024-02-16T08:08:04;213.32;;;58.92;;
11425;SDS011;5769;47.998;7.788;2024-02-16T08:10:33;208.95;;;59.58;;
11425;SDS011;5769;47.998;7.788;2024-02-16T08:13:02;209.50;;;58.40;;
11425;SDS011;5769;47.998;7.788;2024-02-16T08:15:32;208.52;;;58.33;;
11425;SDS011;5769;47.998;7.788;2024-02-16T08:17:59;207.82;;;58.30;;
11425;SDS011;5769;47.998;7.788;2024-02-16T08:20:28;208.15;;;59.00;;
11425;SDS011;5769;47.998;7.788;2024-02-16T08:22:55;209.98;;;57.00;;
11425;SDS011;5769;47.998;7.788;2024-02-16T08:25:24;208.40;;;56.92;;
11425;SDS011;5769;47.998;7.788;2024-02-16T08:27:59;208.93;;;58.17;;
11425;SDS011;5769;47.998;7.788;2024-02-16T08:30:31;210.65;;;60.50;;
11425;SDS011;5769;47.998;7.788;2024-02-16T08:32:58;208.68;;;57.47;;
11425;SDS011;5769;47.998;7.788;2024-02-16T08:35:35;209.32;;;58.35;;
11425;SDS011;5769;47.998;7.788;2024-02-16T08:38:05;208.45;;;57.85;;
11425;SDS011;5769;47.998;7.788;2024-02-16T08:40:37;209.90;;;57.55;;
11425;SDS011;5769;47.998;7.788;2024-02-16T08:43:05;209.77;;;57.60;;
11425;SDS011;5769;47.998;7.788;2024-02-16T08:45:33;212.95;;;58.97;;
11425;SDS011;5769;47.998;7.788;2024-02-16T08:48:06;214.75;;;57.45;;
11425;SDS011;5769;47.998;7.788;2024-02-16T08:50:37;215.25;;;59.20;;
11425;SDS011;5769;47.998;7.788;2024-02-16T08:53:05;214.70;;;58.25;;
11425;SDS011;5769;47.998;7.788;2024-02-16T08:55:35;215.43;;;58.50;;
11425;SDS011;5769;47.998;7.788;2024-02-16T08:58:02;214.18;;;56.97;;
11425;SDS011;5769;47.998;7.788;2024-02-16T09:00:29;215.63;;;58.83;;
11425;SDS011;5769;47.998;7.788;2024-02-16T09:03:05;217.02;;;58.85;;
11425;SDS011;5769;47.998;7.788;2024-02-16T09:05:36;214.90;;;57.97;;
11425;SDS011;5769;47.998;7.788;2024-02-16T09:08:06;215.35;;;59.25;;
11425;SDS011;5769;47.998;7.788;2024-02-16T09:10:35;217.32;;;61.00;;
11425;SDS011;5769;47.998;7.788;2024-02-16T09:13:02;217.00;;;59.90;;
11425;SDS011;5769;47.998;7.788;2024-02-16T09:15:29;218.63;;;60.50;;
11425;SDS011;5769;47.998;7.788;2024-02-16T09:17:59;215.60;;;58.80;;
11425;SDS011;5769;47.998;7.788;2024-02-16T09:20:29;215.00;;;58.88;;
11425;SDS011;5769;47.998;7.788;2024-02-16T09:23:01;216.40;;;59.88;;
11425;SDS011;5769;47.998;7.788;2024-02-16T09:25:27;216.10;;;58.88;;
11425;SDS011;5769;47.998;7.788;2024-02-16T09:27:54;215.70;;;59.08;;
11425;SDS011;5769;47.998;7.788;2024-02-16T09:30:21;218.15;;;59.85;;
11425;SDS011;5769;47.998;7.788;2024-02-16T09:32:47;216.95;;;60.45;;
11425;SDS011;5769;47.998;7.788;2024-02-16T09:35:17;219.40;;;64.25;;
11425;SDS011;5769;47.998;7.788;2024-02-16T09:37:46;217.52;;;60.22;;
11425;SDS011;5769;47.998;7.788;2024-02-16T09:40:15;217.38;;;59.78;;
11425;SDS011;5769;47.998;7.788;2024-02-16T09:42:49;217.30;;;59.10;;
11425;SDS011;5769;47.998;7.788;2024-02-16T09:45:16;217.95;;;59.35;;
11425;SDS011;5769;47.998;7.788;2024-02-16T09:47:44;218.40;;;59.17;;
11425;SDS011;5769;47.998;7.788;2024-02-16T09:50:30;218.95;;;59.63;;
11425;SDS011;5769;47.998;7.788;2024-02-16T09:53:01;218.27;;;59.92;;
11425;SDS011;5769;47.998;7.788;2024-02-16T09:55:33;218.27;;;59.65;;
11425;SDS011;5769;47.998;7.788;2024-02-16T09:58:07;221.10;;;60.67;;
11425;SDS011;5769;47.998;7.788;2024-02-16T10:00:42;219.05;;;58.92;;
11425;SDS011;5769;47.998;7.788;2024-02-16T10:03:22;219.57;;;59.80;;
11425;SDS011;5769;47.998;7.788;2024-02-16T10:05:52;221.07;;;59.83;;
11425;SDS011;5769;47.998;7.788;2024-02-16T10:08:49;220.45;;;59.70;;
11425;SDS011;5769;47.998;7.788;2024-02-16T10:11:23;219.77;;;59.63;;
11425;SDS011;5769;47.998;7.788;2024-02-16T10:13:54;218.07;;;58.35;;
11425;SDS011;5769;47.998;7.788;2024-02-16T10:16:30;220.32;;;59.00;;
11425;SDS011;5769;47.998;7.788;2024-02-16T10:19:03;220.65;;;60.03;;
11425;SDS011;5769;47.998;7.788;2024-02-16T10:21:31;218.95;;;59.45;;
11425;SDS011;5769;47.998;7.788;2024-02-16T10:24:01;217.40;;;58.00;;
11425;SDS011;5769;47.998;7.788;2024-02-16T10:26:33;220.50;;;58.92;;
11425;SDS011;5769;47.998;7.788;2024-02-16T10:29:04;217.85;;;58.88;;
11425;SDS011;5769;47.998;7.788;2024-02-16T10:31:40;213.93;;;59.63;;
11425;SDS011;5769;47.998;7.788;2024-02-16T10:34:10;213.95;;;59.90;;
11425;SDS011;5769;47.998;7.788;2024-02-16T10:36:41;212.27;;;59.33;;
11425;SDS011;5769;47.998;7.788;2024-02-16T10:39:14;215.07;;;58.95;;
11425;SDS011;5769;47.998;7.788;2024-02-16T10:41:46;215.13;;;61.08;;
11425;SDS011;5769;47.998;7.788;2024-02-16T10:44:19;215.10;;;58.78;;
11425;SDS011;5769;47.998;7.788;2024-02-16T10:46:49;215.43;;;57.88;;
11425;SDS011;5769;47.998;7.788;2024-02-16T10:49:17;215.70;;;58.92;;
11425;SDS011;5769;47.998;7.788;2024-02-16T10:51:46;215.82;;;58.63;;
11425;SDS011;5769;47.998;7.788;2024-02-16T10:54:25;219.70;;;61.60;;
11425;SDS011;5769;47.998;7.788;2024-02-16T10:57:00;216.85;;;59.35;;
11425;SDS011;5769;47.998;7.788;2024-02-16T10:59:27;216.27;;;59.72;;
11425;SDS011;5769;47.998;7.788;2024-02-16T11:02:19;217.60;;;60.55;;
11425;SDS011;5769;47.998;7.788;2024-02-16T11:04:51;216.25;;;59.88;;
11425;SDS011;5769;47.998;7.788;2024-02-16T11:07:24;217.90;;;60.53;;
11425;SDS011;5769;47.998;7.788;2024-02-16T11:10:15;217.70;;;59.70;;
11425;SDS011;5769;47.998;7.788;2024-02-16T11:12:44;220.32;;;59.92;;
11425;SDS011;5769;47.998;7.788;2024-02-16T11:15:14;216.82;;;56.92;;
11425;SDS011;5769;47.998;7.788;2024-02-16T11:17:41;220.07;;;58.42;;
11425;SDS011;5769;47.998;7.788;2024-02-16T11:20:10;220.00;;;59.95;;
11425;SDS011;5769;47.998;7.788;2024-02-16T11:22:39;218.02;;;57.80;;
11425;SDS011;5769;47.998;7.788;2024-02-16T11:25:06;228.57;;;69.50;;
11425;SDS011;5769;47.998;7.788;2024-02-16T11:27:38;220.40;;;59.03;;
11425;SDS011;5769;47.998;7.788;2024-02-16T11:30:10;218.32;;;58.80;;
11425;SDS011;5769;47.998;7.788;2024-02-16T11:32:42;222.38;;;63.95;;
11425;SDS011;5769;47.998;7.788;2024-02-16T11:35:10;221.02;;;59.45;;
11425;SDS011;5769;47.998;7.788;2024-02-16T11:37:41;218.93;;;57.92;;
11425;SDS011;5769;47.998;7.788;2024-02-16T11:40:15;221.77;;;61.05;;
11425;SDS011;5769;47.998;7.788;2024-02-16T11:42:58;221.18;;;58.25;;
11425;SDS011;5769;47.998;7.788;2024-02-16T11:45:25;218.95;;;57.33;;
11425;SDS011;5769;47.998;7.788;2024-02-16T11:48:19;222.82;;;59.42;;
11425;SDS011;5769;47.998;7.788;2024-02-16T11:50:59;222.15;;;58.38;;
11425;SDS011;5769;47.998;7.788;2024-02-16T11:53:30;225.48;;;63.92;;
11425;SDS011;5769;47.998;7.788;2024-02-16T11:55:58;223.60;;;60.33;;
11425;SDS011;5769;47.998;7.788;2024-02-16T11:58:33;222.80;;;57.80;;
11425;SDS011;5769;47.998;7.788;2024-02-16T12:01:05;226.35;;;61.95;;
11425;SDS011;5769;47.998;7.788;2024-02-16T12:03:37;221.07;;;57.20;;
11425;SDS011;5769;47.998;7.788;2024-02-16T12:06:07;223.68;;;58.95;;
11425;SDS011;5769;47.998;7.788;2024-02-16T12:08:42;220.00;;;56.75;;
11425;SDS011;5769;47.998;7.788;2024-02-16T12:11:15;219.38;;;56.70;;
11425;SDS011;5769;47.998;7.788;2024-02-16T12:14:08;228.70;;;66.10;;
11425;SDS011;5769;47.998;7.788;2024-02-16T12:16:40;221.88;;;57.85;;
11425;SDS011;5769;47.998;7.788;2024-02-16T12:19:15;220.95;;;57.08;;
11425;SDS011;5769;47.998;7.788;2024-02-16T12:21:51;226.10;;;64.65;;
11425;SDS011;5769;47.998;7.788;2024-02-16T12:24:25;219.88;;;56.92;;
11425;SDS011;5769;47.998;7.788;2024-02-16T12:27:22;220.77;;;56.60;;
11425;SDS011;5769;47.998;7.788;2024-02-16T12:29:54;223.50;;;58.10;;
11425;SDS011;5769;47.998;7.788;2024-02-16T12:32:20;220.75;;;57.13;;
11425;SDS011;5769;47.998;7.788;2024-02-16T12:34:50;224.10;;;59.92;;
11425;SDS011;5769;47.998;7.788;2024-02-16T12:37:23;222.90;;;56.50;;
11425;SDS011;5769;47.998;7.788;2024-02-16T12:39:58;223.07;;;56.72;;
11425;SDS011;5769;47.998;7.788;2024-02-16T12:42:26;226.10;;;62.60;;
11425;SDS011;5769;47.998;7.788;2024-02-16T12:45:00;219.77;;;56.50;;
11425;SDS011;5769;47.998;7.788;2024-02-16T12:47:31;223.43;;;57.83;;
11425;SDS011;5769;47.998;7.788;2024-02-16T12:50:01;227.40;;;63.20;;
11425;SDS011;5769;47.998;7.788;2024-02-16T12:52:43;220.80;;;56.00;;
11425;SDS011;5769;47.998;7.788;2024-02-16T12:55:27;222.88;;;57.63;;
11425;SDS011;5769;47.998;7.788;2024-02-16T12:57:59;223.32;;;56.15;;
11425;SDS011;5769;47.998;7.788;2024-02-16T13:00:34;222.02;;;57.20;;
11425;SDS011;5769;47.998;7.788;2024-02-16T13:03:14;235.57;;;74.07;;
11425;SDS011;5769;47.998;7.788;2024-02-16T13:05:48;221.93;;;54.63;;
11425;SDS011;5769;47.998;7.788;2024-02-16T13:08:15;223.18;;;57.05;;
11425;SDS011;5769;47.998;7.788;2024-02-16T13:10:45;228.82;;;62.63;;
11425;SDS011;5769;47.998;7.788;2024-02-16T13:13:15;223.73;;;57.47;;
11425;SDS011;5769;47.998;7.788;2024-02-16T13:15:46;223.32;;;57.97;;
11425;SDS011;5769;47.998;7.788;2024-02-16T13:18:14;223.10;;;59.05;;
11425;SDS011;5769;47.998;7.788;2024-02-16T13:20:46;225.50;;;57.58;;
11425;SDS011;5769;47.998;7.788;2024-02-16T13:23:14;224.07;;;55.97;;
11425;SDS011;5769;47.998;7.788;2024-02-16T13:25:44;223.20;;;56.72;;
11425;SDS011;5769;47.998;7.788;2024-02-16T13:28:14;225.70;;;58.53;;
11425;SDS011;5769;47.998;7.788;2024-02-16T13:30:42;224.15;;;57.20;;
11425;SDS011;5769;47.998;7.788;2024-02-16T13:33:13;224.05;;;57.45;;
11425;SDS011;5769;47.998;7.788;2024-02-16T13:35:45;223.07;;;56.85;;
11425;SDS011;5769;47.998;7.788;2024-02-16T13:38:11;234.38;;;70.70;;
11425;SDS011;5769;47.998;7.788;2024-02-16T13:40:44;225.68;;;55.63;;
11425;SDS011;5769;47.998;7.788;2024-02-16T13:43:17;226.02;;;57.53;;
11425;SDS011;5769;47.998;7.788;2024-02-16T13:45:48;231.18;;;63.88;;
11425;SDS011;5769;47.998;7.788;2024-02-16T13:48:20;227.30;;;57.15;;
11425;SDS011;5769;47.998;7.788;2024-02-16T13:50:50;228.05;;;57.22;;
11425;SDS011;5769;47.998;7.788;2024-02-16T13:53:25;228.10;;;58.28;;
11425;SDS011;5769;47.998;7.788;2024-02-16T13:55:51;228.07;;;58.40;;
11425;SDS011;5769;47.998;7.788;2024-02-16T13:58:23;227.60;;;57.45;;
11425;SDS011;5769;47.998;7.788;2024-02-16T14:00:53;225.55;;;56.60;;
11425;SDS011;5769;47.998;7.788;2024-02-16T14:03:28;223.90;;;56.80;;
11425;SDS011;5769;47.998;7.788;2024-02-16T14:05:55;225.85;;;59.33;;
11425;SDS011;5769;47.998;7.788;2024-02-16T14:08:25;223.52;;;57.33;;
11425;SDS011;5769;47.998;7.788;2024-02-16T14:11:02;219.77;;;56.20;;
11425;SDS011;5769;47.998;7.788;2024-02-16T14:13:33;227.27;;;63.30;;
11425;SDS011;5769;47.998;7.788;2024-02-16T14:16:06;224.40;;;57.40;;
11425;SDS011;5769;47.998;7.788;2024-02-16T14:18:40;222.60;;;56.83;;
11425;SDS011;5769;47.998;7.788;2024-02-16T14:21:09;223.35;;;61.90;;
11425;SDS011;5769;47.998;7.788;2024-02-16T14:23:43;220.27;;;56.58;;
11425;SDS011;5769;47.998;7.788;2024-02-16T14:26:12;223.50;;;56.55;;
11425;SDS011;5769;47.998;7.788;2024-02-16T14:28:42;225.07;;;58.05;;
11425;SDS011;5769;47.998;7.788;2024-02-16T14:31:17;222.82;;;57.42;;
11425;SDS011;5769;47.998;7.788;2024-02-16T14:33:54;226.25;;;59.97;;
11425;SDS011;5769;47.998;7.788;2024-02-16T14:36:24;225.55;;;58.35;;
11425;SDS011;5769;47.998;7.788;2024-02-16T14:38:50;223.48;;;56.40;;
11425;SDS011;5769;47.998;7.788;2024-02-16T14:41:22;228.45;;;61.95;;